sensor_id;sensor_type;location;lat;lon;timestamp;temperature;humidity
25963;DHT22;13760;52.588;13.406;2023-11-19T00:01:26;4.80;99.90
25963;DHT22;13760;52.588;13.406;2023-11-19T00:03:55;4.70;99.90
25963;DHT22;13760;52.588;13.406;2023-11-19T00:06:20;4.70;99.90
25963;DHT22;13760;52.588;13.406;2023-11-19T00:08:46;4.70;99.90
25963;DHT22;13760;52.588;13.406;2023-11-19T00:11:12;4.70;99.90
25963;DHT22;13760;52.588;13.406;2023-11-19T00:13:40;4.70;99.90
25963;DHT22;13760;52.588;13.406;2023-11-19T00:16:07;4.70;99.90
25963;DHT22;13760;52.588;13.406;2023-11-19T00:18:33;4.70;99.90
25963;DHT22;13760;52.588;13.406;2023-11-19T00:20:59;4.70;99.90
25963;DHT22;13760;52.588;13.406;2023-11-19T00:23:24;4.70;99.90
25963;DHT22;13760;52.588;13.406;2023-11-19T00:25:50;4.70;99.90
25963;DHT22;13760;52.588;13.406;2023-11-19T00:28:15;4.70;99.90
25963;DHT22;13760;52.588;13.406;2023-11-19T00:30:41;4.60;99.90
25963;DHT22;13760;52.588;13.406;2023-11-19T00:33:06;4.60;99.90
25963;DHT22;13760;52.588;13.406;2023-11-19T00:35:32;4.70;99.90
25963;DHT22;13760;52.588;13.406;2023-11-19T00:37:58;4.70;99.90
25963;DHT22;13760;52.588;13.406;2023-11-19T00:40:23;4.60;99.90
25963;DHT22;13760;52.588;13.406;2023-11-19T00:42:49;4.70;99.90
25963;DHT22;13760;52.588;13.406;2023-11-19T00:45:15;4.70;99.90
25963;DHT22;13760;52.588;13.406;2023-11-19T00:47:41;4.70;99.90
25963;DHT22;13760;52.588;13.406;2023-11-19T00:50:07;4.70;99.90
25963;DHT22;13760;52.588;13.406;2023-11-19T00:52:36;4.70;99.90
25963;DHT22;13760;52.588;13.406;2023-11-19T00:55:03;4.70;99.90
25963;DHT22;13760;52.588;13.406;2023-11-19T00:57:28;4.70;99.90
25963;DHT22;13760;52.588;13.406;2023-11-19T00:59:54;4.70;99.90
25963;DHT22;13760;52.588;13.406;2023-11-19T01:02:19;4.70;99.90
25963;DHT22;13760;52.588;13.406;2023-11-19T01:04:45;4.70;99.90
25963;DHT22;13760;52.588;13.406;2023-11-19T01:07:10;4.70;99.90
25963;DHT22;13760;52.588;13.406;2023-11-19T01:09:38;4.80;99.90
25963;DHT22;13760;52.588;13.406;2023-11-19T01:12:04;4.80;99.90
25963;DHT22;13760;52.588;13.406;2023-11-19T01:14:30;4.80;99.90
25963;DHT22;13760;52.588;13.406;2023-11-19T01:16:56;4.80;99.90
25963;DHT22;13760;52.588;13.406;2023-11-19T01:19:22;4.80;99.90
25963;DHT22;13760;52.588;13.406;2023-11-19T01:21:48;4.70;99.90
25963;DHT22;13760;52.588;13.406;2023-11-19T01:24:14;4.70;99.90
25963;DHT22;13760;52.588;13.406;2023-11-19T01:26:40;4.70;99.90
25963;DHT22;13760;52.588;13.406;2023-11-19T01:29:11;4.70;99.90
25963;DHT22;13760;52.588;13.406;2023-11-19T01:31:42;4.80;99.90
25963;DHT22;13760;52.588;13.406;2023-11-19T01:34:08;4.80;99.90
25963;DHT22;13760;52.588;13.406;2023-11-19T01:36:34;4.80;99.90
25963;DHT22;13760;52.588;13.406;2023-11-19T01:39:00;4.80;99.90
25963;DHT22;13760;52.588;13.406;2023-11-19T01:41:26;4.80;99.90
25963;DHT22;13760;52.588;13.406;2023-11-19T01:43:52;4.80;99.90
25963;DHT22;13760;52.588;13.406;2023-11-19T01:46:17;4.90;99.90
25963;DHT22;13760;52.588;13.406;2023-11-19T01:48:45;4.90;99.90
25963;DHT22;13760;52.588;13.406;2023-11-19T01:51:12;4.90;99.90
25963;DHT22;13760;52.588;13.406;2023-11-19T01:53:39;4.90;99.90
25963;DHT22;13760;52.588;13.406;2023-11-19T01:56:09;5.00;99.90
25963;DHT22;13760;52.588;13.406;2023-11-19T01:58:37;5.00;99.90
25963;DHT22;13760;52.588;13.406;2023-11-19T02:01:05;5.00;99.90
25963;DHT22;13760;52.588;13.406;2023-11-19T02:03:31;5.00;99.90
25963;DHT22;13760;52.588;13.406;2023-11-19T02:05:59;5.00;99.90
25963;DHT22;13760;52.588;13.406;2023-11-19T02:08:25;5.00;99.90
25963;DHT22;13760;52.588;13.406;2023-11-19T02:10:51;5.00;99.90
25963;DHT22;13760;52.588;13.406;2023-11-19T02:13:18;5.00;99.90
25963;DHT22;13760;52.588;13.406;2023-11-19T02:15:43;5.00;99.90
25963;DHT22;13760;52.588;13.406;2023-11-19T02:18:25;5.00;99.90
25963;DHT22;13760;52.588;13.406;2023-11-19T02:20:54;5.00;99.90
25963;DHT22;13760;52.588;13.406;2023-11-19T02:23:20;5.00;99.90
25963;DHT22;13760;52.588;13.406;2023-11-19T02:26:05;5.00;99.90
25963;DHT22;13760;52.588;13.406;2023-11-19T02:28:36;5.00;99.90
25963;DHT22;13760;52.588;13.406;2023-11-19T02:31:02;5.00;99.90
25963;DHT22;13760;52.588;13.406;2023-11-19T02:33:30;5.00;99.90
25963;DHT22;13760;52.588;13.406;2023-11-19T02:35:56;5.00;99.90
25963;DHT22;13760;52.588;13.406;2023-11-19T02:38:22;5.00;99.90
25963;DHT22;13760;52.588;13.406;2023-11-19T02:40:48;5.00;99.90
25963;DHT22;13760;52.588;13.406;2023-11-19T02:43:14;5.00;99.90
25963;DHT22;13760;52.588;13.406;2023-11-19T02:45:40;5.00;99.90
25963;DHT22;13760;52.588;13.406;2023-11-19T02:48:05;4.90;99.90
25963;DHT22;13760;52.588;13.406;2023-11-19T02:50:31;5.00;99.90
25963;DHT22;13760;52.588;13.406;2023-11-19T02:52:57;5.00;99.90
25963;DHT22;13760;52.588;13.406;2023-11-19T02:55:23;5.00;99.90
25963;DHT22;13760;52.588;13.406;2023-11-19T02:57:50;5.00;99.90
25963;DHT22;13760;52.588;13.406;2023-11-19T03:00:20;5.00;99.90
25963;DHT22;13760;52.588;13.406;2023-11-19T03:02:50;5.00;99.90
25963;DHT22;13760;52.588;13.406;2023-11-19T03:05:30;5.00;99.90
25963;DHT22;13760;52.588;13.406;2023-11-19T03:07:56;5.00;99.90
25963;DHT22;13760;52.588;13.406;2023-11-19T03:10:22;5.00;99.90
25963;DHT22;13760;52.588;13.406;2023-11-19T03:12:49;5.10;99.90
25963;DHT22;13760;52.588;13.406;2023-11-19T03:15:15;5.10;99.90
25963;DHT22;13760;52.588;13.406;2023-11-19T03:17:41;5.10;99.90
25963;DHT22;13760;52.588;13.406;2023-11-19T03:20:09;5.10;99.90
25963;DHT22;13760;52.588;13.406;2023-11-19T03:22:39;5.20;99.90
25963;DHT22;13760;52.588;13.406;2023-11-19T03:25:07;5.20;99.90
25963;DHT22;13760;52.588;13.406;2023-11-19T03:27:34;5.20;99.90
25963;DHT22;13760;52.588;13.406;2023-11-19T03:30:01;5.20;99.90
25963;DHT22;13760;52.588;13.406;2023-11-19T03:32:27;5.20;99.90
25963;DHT22;13760;52.588;13.406;2023-11-19T03:34:52;5.20;99.90
25963;DHT22;13760;52.588;13.406;2023-11-19T03:37:18;5.20;99.90
25963;DHT22;13760;52.588;13.406;2023-11-19T03:39:44;5.20;99.90
25963;DHT22;13760;52.588;13.406;2023-11-19T03:42:10;5.10;99.90
25963;DHT22;13760;52.588;13.406;2023-11-19T03:44:38;5.10;99.90
25963;DHT22;13760;52.588;13.406;2023-11-19T03:47:04;5.10;99.90
25963;DHT22;13760;52.588;13.406;2023-11-19T03:49:29;5.10;99.90
25963;DHT22;13760;52.588;13.406;2023-11-19T03:51:55;5.00;99.90
25963;DHT22;13760;52.588;13.406;2023-11-19T03:54:21;4.90;99.90
25963;DHT22;13760;52.588;13.406;2023-11-19T03:56:48;4.90;99.90
25963;DHT22;13760;52.588;13.406;2023-11-19T03:59:14;4.80;99.90
25963;DHT22;13760;52.588;13.406;2023-11-19T04:01:40;4.90;99.90
25963;DHT22;13760;52.588;13.406;2023-11-19T04:04:06;4.80;99.90
25963;DHT22;13760;52.588;13.406;2023-11-19T04:06:32;4.80;99.90
25963;DHT22;13760;52.588;13.406;2023-11-19T04:08:57;4.80;99.90
25963;DHT22;13760;52.588;13.406;2023-11-19T04:11:23;4.70;99.90
25963;DHT22;13760;52.588;13.406;2023-11-19T04:13:49;4.70;99.90
25963;DHT22;13760;52.588;13.406;2023-11-19T04:16:14;4.60;99.90
25963;DHT22;13760;52.588;13.406;2023-11-19T04:18:40;4.60;99.90
25963;DHT22;13760;52.588;13.406;2023-11-19T04:21:09;4.60;99.90
25963;DHT22;13760;52.588;13.406;2023-11-19T04:23:34;4.60;99.90
25963;DHT22;13760;52.588;13.406;2023-11-19T04:26:03;4.60;99.90
25963;DHT22;13760;52.588;13.406;2023-11-19T04:28:30;4.50;99.90
25963;DHT22;13760;52.588;13.406;2023-11-19T04:30:56;4.60;99.90
25963;DHT22;13760;52.588;13.406;2023-11-19T04:33:21;4.60;99.90
25963;DHT22;13760;52.588;13.406;2023-11-19T04:35:47;4.50;99.90
25963;DHT22;13760;52.588;13.406;2023-11-19T04:38:12;4.50;99.90
25963;DHT22;13760;52.588;13.406;2023-11-19T04:40:38;4.50;99.90
25963;DHT22;13760;52.588;13.406;2023-11-19T04:43:03;4.50;99.90
25963;DHT22;13760;52.588;13.406;2023-11-19T04:45:29;4.50;99.90
25963;DHT22;13760;52.588;13.406;2023-11-19T04:47:55;4.50;99.90
25963;DHT22;13760;52.588;13.406;2023-11-19T04:50:20;4.50;99.90
25963;DHT22;13760;52.588;13.406;2023-11-19T04:52:47;4.50;99.90
25963;DHT22;13760;52.588;13.406;2023-11-19T04:55:12;4.50;99.90
25963;DHT22;13760;52.588;13.406;2023-11-19T04:57:39;4.50;99.90
25963;DHT22;13760;52.588;13.406;2023-11-19T05:00:05;4.50;99.90
25963;DHT22;13760;52.588;13.406;2023-11-19T05:02:33;4.50;99.90
25963;DHT22;13760;52.588;13.406;2023-11-19T05:04:59;4.40;99.90
25963;DHT22;13760;52.588;13.406;2023-11-19T05:07:24;4.40;99.90
25963;DHT22;13760;52.588;13.406;2023-11-19T05:09:50;4.40;99.90
25963;DHT22;13760;52.588;13.406;2023-11-19T05:12:15;4.50;99.90
25963;DHT22;13760;52.588;13.406;2023-11-19T05:14:41;4.40;99.90
25963;DHT22;13760;52.588;13.406;2023-11-19T05:17:13;4.40;99.90
25963;DHT22;13760;52.588;13.406;2023-11-19T05:19:39;4.40;99.90
25963;DHT22;13760;52.588;13.406;2023-11-19T05:22:04;4.40;99.90
25963;DHT22;13760;52.588;13.406;2023-11-19T05:24:31;4.40;99.90
25963;DHT22;13760;52.588;13.406;2023-11-19T05:26:57;4.40;99.90
25963;DHT22;13760;52.588;13.406;2023-11-19T05:29:23;4.40;99.90
25963;DHT22;13760;52.588;13.406;2023-11-19T05:31:49;4.40;99.90
25963;DHT22;13760;52.588;13.406;2023-11-19T05:34:15;4.50;99.90
25963;DHT22;13760;52.588;13.406;2023-11-19T05:36:41;4.50;99.90
25963;DHT22;13760;52.588;13.406;2023-11-19T05:39:06;4.50;99.90
25963;DHT22;13760;52.588;13.406;2023-11-19T05:41:32;4.40;99.90
25963;DHT22;13760;52.588;13.406;2023-11-19T05:43:57;4.50;99.90
25963;DHT22;13760;52.588;13.406;2023-11-19T05:46:23;4.50;99.90
25963;DHT22;13760;52.588;13.406;2023-11-19T05:48:50;4.50;99.90
25963;DHT22;13760;52.588;13.406;2023-11-19T05:51:16;4.50;99.90
25963;DHT22;13760;52.588;13.406;2023-11-19T05:53:42;4.50;99.90
25963;DHT22;13760;52.588;13.406;2023-11-19T05:56:09;4.50;99.90
25963;DHT22;13760;52.588;13.406;2023-11-19T05:58:34;4.50;99.90
25963;DHT22;13760;52.588;13.406;2023-11-19T06:01:01;4.50;99.90
25963;DHT22;13760;52.588;13.406;2023-11-19T06:03:27;4.50;99.90
25963;DHT22;13760;52.588;13.406;2023-11-19T06:05:53;4.50;99.90
25963;DHT22;13760;52.588;13.406;2023-11-19T06:08:20;4.50;99.90
25963;DHT22;13760;52.588;13.406;2023-11-19T06:10:46;4.50;99.90
25963;DHT22;13760;52.588;13.406;2023-11-19T06:13:12;4.60;99.90
25963;DHT22;13760;52.588;13.406;2023-11-19T06:15:43;4.60;99.90
25963;DHT22;13760;52.588;13.406;2023-11-19T06:18:09;4.60;99.90
25963;DHT22;13760;52.588;13.406;2023-11-19T06:20:37;4.60;99.90
25963;DHT22;13760;52.588;13.406;2023-11-19T06:23:02;4.60;99.90
25963;DHT22;13760;52.588;13.406;2023-11-19T06:25:28;4.60;99.90
25963;DHT22;13760;52.588;13.406;2023-11-19T06:27:54;4.60;99.90
25963;DHT22;13760;52.588;13.406;2023-11-19T06:30:19;4.60;99.90
25963;DHT22;13760;52.588;13.406;2023-11-19T06:32:46;4.70;99.90
25963;DHT22;13760;52.588;13.406;2023-11-19T06:35:12;4.60;99.90
25963;DHT22;13760;52.588;13.406;2023-11-19T06:37:40;4.70;99.90
25963;DHT22;13760;52.588;13.406;2023-11-19T06:40:06;4.70;99.90
25963;DHT22;13760;52.588;13.406;2023-11-19T06:42:32;4.70;99.90
25963;DHT22;13760;52.588;13.406;2023-11-19T06:44:58;4.70;99.90
25963;DHT22;13760;52.588;13.406;2023-11-19T06:47:27;4.70;99.90
25963;DHT22;13760;52.588;13.406;2023-11-19T06:49:53;4.80;99.90
25963;DHT22;13760;52.588;13.406;2023-11-19T06:52:19;4.70;99.90
25963;DHT22;13760;52.588;13.406;2023-11-19T06:54:45;4.80;99.90
25963;DHT22;13760;52.588;13.406;2023-11-19T06:57:13;4.80;99.90
25963;DHT22;13760;52.588;13.406;2023-11-19T06:59:39;4.80;99.90
25963;DHT22;13760;52.588;13.406;2023-11-19T07:02:06;4.80;99.90
25963;DHT22;13760;52.588;13.406;2023-11-19T07:04:32;4.80;99.90
25963;DHT22;13760;52.588;13.406;2023-11-19T07:06:58;4.80;99.90
25963;DHT22;13760;52.588;13.406;2023-11-19T07:09:25;4.80;99.90
25963;DHT22;13760;52.588;13.406;2023-11-19T07:11:50;4.80;99.90
25963;DHT22;13760;52.588;13.406;2023-11-19T07:14:18;4.90;99.90
25963;DHT22;13760;52.588;13.406;2023-11-19T07:16:43;4.90;99.90
25963;DHT22;13760;52.588;13.406;2023-11-19T07:19:09;4.90;99.90
25963;DHT22;13760;52.588;13.406;2023-11-19T07:21:35;4.90;99.90
25963;DHT22;13760;52.588;13.406;2023-11-19T07:24:05;4.90;99.90
25963;DHT22;13760;52.588;13.406;2023-11-19T07:26:31;4.90;99.90
25963;DHT22;13760;52.588;13.406;2023-11-19T07:28:57;4.90;99.90
25963;DHT22;13760;52.588;13.406;2023-11-19T07:31:24;5.00;99.90
25963;DHT22;13760;52.588;13.406;2023-11-19T07:33:50;4.90;99.90
25963;DHT22;13760;52.588;13.406;2023-11-19T07:36:15;5.00;99.90
25963;DHT22;13760;52.588;13.406;2023-11-19T07:38:41;5.00;99.90
25963;DHT22;13760;52.588;13.406;2023-11-19T07:41:07;5.00;99.90
25963;DHT22;13760;52.588;13.406;2023-11-19T07:43:39;5.00;99.90
25963;DHT22;13760;52.588;13.406;2023-11-19T07:46:04;5.00;99.90
25963;DHT22;13760;52.588;13.406;2023-11-19T07:48:33;5.10;99.90
25963;DHT22;13760;52.588;13.406;2023-11-19T07:51:00;5.10;99.90
25963;DHT22;13760;52.588;13.406;2023-11-19T07:53:26;5.10;99.90
25963;DHT22;13760;52.588;13.406;2023-11-19T07:55:52;5.10;99.90
25963;DHT22;13760;52.588;13.406;2023-11-19T07:58:17;5.20;99.90
25963;DHT22;13760;52.588;13.406;2023-11-19T08:00:43;5.20;99.90
25963;DHT22;13760;52.588;13.406;2023-11-19T08:03:08;5.20;99.90
25963;DHT22;13760;52.588;13.406;2023-11-19T08:05:34;5.20;99.90
25963;DHT22;13760;52.588;13.406;2023-11-19T08:07:59;5.30;99.90
25963;DHT22;13760;52.588;13.406;2023-11-19T08:10:26;5.30;99.90
25963;DHT22;13760;52.588;13.406;2023-11-19T08:12:52;5.30;99.90
25963;DHT22;13760;52.588;13.406;2023-11-19T08:15:17;5.30;99.90
25963;DHT22;13760;52.588;13.406;2023-11-19T08:17:43;5.40;99.90
25963;DHT22;13760;52.588;13.406;2023-11-19T08:20:09;5.40;99.90
25963;DHT22;13760;52.588;13.406;2023-11-19T08:22:38;5.40;99.90
25963;DHT22;13760;52.588;13.406;2023-11-19T08:25:05;5.50;99.90
25963;DHT22;13760;52.588;13.406;2023-11-19T08:27:31;5.50;99.90
25963;DHT22;13760;52.588;13.406;2023-11-19T08:29:56;5.50;99.90
25963;DHT22;13760;52.588;13.406;2023-11-19T08:32:26;5.50;99.90
25963;DHT22;13760;52.588;13.406;2023-11-19T08:34:52;5.60;99.90
25963;DHT22;13760;52.588;13.406;2023-11-19T08:37:18;5.60;99.90
25963;DHT22;13760;52.588;13.406;2023-11-19T08:39:47;5.60;99.90
25963;DHT22;13760;52.588;13.406;2023-11-19T08:42:19;5.70;99.90
25963;DHT22;13760;52.588;13.406;2023-11-19T08:44:52;5.70;99.90
25963;DHT22;13760;52.588;13.406;2023-11-19T08:47:20;5.70;99.90
25963;DHT22;13760;52.588;13.406;2023-11-19T08:49:45;5.80;99.90
25963;DHT22;13760;52.588;13.406;2023-11-19T08:52:11;5.80;99.90
25963;DHT22;13760;52.588;13.406;2023-11-19T08:54:37;5.90;99.90
25963;DHT22;13760;52.588;13.406;2023-11-19T08:57:03;5.90;99.90
25963;DHT22;13760;52.588;13.406;2023-11-19T08:59:29;6.10;99.90
25963;DHT22;13760;52.588;13.406;2023-11-19T09:01:55;6.20;99.90
25963;DHT22;13760;52.588;13.406;2023-11-19T09:04:20;6.20;99.90
25963;DHT22;13760;52.588;13.406;2023-11-19T09:06:49;6.30;99.90
25963;DHT22;13760;52.588;13.406;2023-11-19T09:09:15;6.30;99.90
25963;DHT22;13760;52.588;13.406;2023-11-19T09:11:41;6.40;99.90
25963;DHT22;13760;52.588;13.406;2023-11-19T09:14:06;6.40;99.90
25963;DHT22;13760;52.588;13.406;2023-11-19T09:16:32;6.40;99.90
25963;DHT22;13760;52.588;13.406;2023-11-19T09:19:04;6.40;99.90
25963;DHT22;13760;52.588;13.406;2023-11-19T09:21:56;6.40;99.90
25963;DHT22;13760;52.588;13.406;2023-11-19T09:24:21;6.50;99.90
25963;DHT22;13760;52.588;13.406;2023-11-19T09:26:47;6.60;99.90
25963;DHT22;13760;52.588;13.406;2023-11-19T09:29:13;6.60;99.90
25963;DHT22;13760;52.588;13.406;2023-11-19T09:31:40;6.70;99.90
25963;DHT22;13760;52.588;13.406;2023-11-19T09:34:05;6.80;99.90
25963;DHT22;13760;52.588;13.406;2023-11-19T09:36:31;6.80;99.90
25963;DHT22;13760;52.588;13.406;2023-11-19T09:39:06;6.90;99.90
25963;DHT22;13760;52.588;13.406;2023-11-19T09:41:33;7.00;99.90
25963;DHT22;13760;52.588;13.406;2023-11-19T09:44:00;7.20;99.90
25963;DHT22;13760;52.588;13.406;2023-11-19T09:46:26;7.30;99.90
25963;DHT22;13760;52.588;13.406;2023-11-19T09:48:56;7.30;99.90
25963;DHT22;13760;52.588;13.406;2023-11-19T09:51:23;7.40;99.90
25963;DHT22;13760;52.588;13.406;2023-11-19T09:53:49;7.50;99.90
25963;DHT22;13760;52.588;13.406;2023-11-19T09:56:15;7.60;99.90
25963;DHT22;13760;52.588;13.406;2023-11-19T09:58:42;7.70;99.90
25963;DHT22;13760;52.588;13.406;2023-11-19T10:01:11;7.80;99.90
25963;DHT22;13760;52.588;13.406;2023-11-19T10:03:39;7.80;99.90
25963;DHT22;13760;52.588;13.406;2023-11-19T10:06:07;7.90;99.90
25963;DHT22;13760;52.588;13.406;2023-11-19T10:08:34;8.00;99.90
25963;DHT22;13760;52.588;13.406;2023-11-19T10:10:59;8.00;99.90
25963;DHT22;13760;52.588;13.406;2023-11-19T10:13:30;8.10;99.90
25963;DHT22;13760;52.588;13.406;2023-11-19T10:16:07;8.10;99.90
25963;DHT22;13760;52.588;13.406;2023-11-19T10:18:34;8.20;99.90
25963;DHT22;13760;52.588;13.406;2023-11-19T10:21:04;8.30;99.90
25963;DHT22;13760;52.588;13.406;2023-11-19T10:23:31;8.30;99.90
25963;DHT22;13760;52.588;13.406;2023-11-19T10:26:12;8.40;99.90
25963;DHT22;13760;52.588;13.406;2023-11-19T10:28:42;8.50;99.90
25963;DHT22;13760;52.588;13.406;2023-11-19T10:31:22;8.50;99.90
25963;DHT22;13760;52.588;13.406;2023-11-19T10:33:51;8.60;99.90
25963;DHT22;13760;52.588;13.406;2023-11-19T10:36:17;8.60;99.90
25963;DHT22;13760;52.588;13.406;2023-11-19T10:38:56;8.70;99.90
25963;DHT22;13760;52.588;13.406;2023-11-19T10:41:32;8.80;99.90
25963;DHT22;13760;52.588;13.406;2023-11-19T10:44:00;8.80;99.90
25963;DHT22;13760;52.588;13.406;2023-11-19T10:46:40;8.80;99.90
25963;DHT22;13760;52.588;13.406;2023-11-19T10:49:07;8.90;99.90
25963;DHT22;13760;52.588;13.406;2023-11-19T10:51:33;8.90;99.90
25963;DHT22;13760;52.588;13.406;2023-11-19T10:54:03;9.00;99.90
25963;DHT22;13760;52.588;13.406;2023-11-19T10:56:33;9.00;99.90
25963;DHT22;13760;52.588;13.406;2023-11-19T10:59:00;9.10;99.90
25963;DHT22;13760;52.588;13.406;2023-11-19T11:01:39;9.20;99.90
25963;DHT22;13760;52.588;13.406;2023-11-19T11:04:14;9.20;99.90
25963;DHT22;13760;52.588;13.406;2023-11-19T11:06:43;9.20;99.90
25963;DHT22;13760;52.588;13.406;2023-11-19T11:09:10;9.30;99.90
25963;DHT22;13760;52.588;13.406;2023-11-19T11:11:39;9.40;99.90
25963;DHT22;13760;52.588;13.406;2023-11-19T11:14:18;9.50;99.90
25963;DHT22;13760;52.588;13.406;2023-11-19T11:16:46;9.60;99.90
25963;DHT22;13760;52.588;13.406;2023-11-19T11:19:12;9.80;99.90
25963;DHT22;13760;52.588;13.406;2023-11-19T11:21:40;9.80;99.90
25963;DHT22;13760;52.588;13.406;2023-11-19T11:24:20;9.80;99.90
25963;DHT22;13760;52.588;13.406;2023-11-19T11:27:14;10.00;99.90
25963;DHT22;13760;52.588;13.406;2023-11-19T11:30:11;10.10;99.90
25963;DHT22;13760;52.588;13.406;2023-11-19T11:32:50;10.30;99.90
25963;DHT22;13760;52.588;13.406;2023-11-19T11:38:06;10.40;99.90
25963;DHT22;13760;52.588;13.406;2023-11-19T11:41:12;10.40;99.90
25963;DHT22;13760;52.588;13.406;2023-11-19T11:43:49;10.50;99.90
25963;DHT22;13760;52.588;13.406;2023-11-19T11:49:08;10.50;99.90
25963;DHT22;13760;52.588;13.406;2023-11-19T11:52:07;10.60;99.90
25963;DHT22;13760;52.588;13.406;2023-11-19T11:54:41;10.60;99.90
25963;DHT22;13760;52.588;13.406;2023-11-19T11:59:46;10.50;99.90
25963;DHT22;13760;52.588;13.406;2023-11-19T12:02:19;10.50;99.90
25963;DHT22;13760;52.588;13.406;2023-11-19T12:04:51;10.50;99.90
25963;DHT22;13760;52.588;13.406;2023-11-19T12:07:26;10.40;99.90
25963;DHT22;13760;52.588;13.406;2023-11-19T12:09:53;10.50;99.90
25963;DHT22;13760;52.588;13.406;2023-11-19T12:12:27;10.50;99.90
25963;DHT22;13760;52.588;13.406;2023-11-19T12:15:10;10.40;99.90
25963;DHT22;13760;52.588;13.406;2023-11-19T12:17:38;10.40;99.90
25963;DHT22;13760;52.588;13.406;2023-11-19T12:20:06;10.50;99.90
25963;DHT22;13760;52.588;13.406;2023-11-19T12:22:40;10.40;99.90
25963;DHT22;13760;52.588;13.406;2023-11-19T12:25:08;10.50;99.90
25963;DHT22;13760;52.588;13.406;2023-11-19T12:27:40;10.50;99.90
25963;DHT22;13760;52.588;13.406;2023-11-19T12:30:06;10.50;99.90
25963;DHT22;13760;52.588;13.406;2023-11-19T12:32:43;10.40;99.90
25963;DHT22;13760;52.588;13.406;2023-11-19T12:35:10;10.40;99.90
25963;DHT22;13760;52.588;13.406;2023-11-19T12:37:43;10.40;99.90
25963;DHT22;13760;52.588;13.406;2023-11-19T12:40:20;10.40;99.90
25963;DHT22;13760;52.588;13.406;2023-11-19T12:42:47;10.40;99.90
25963;DHT22;13760;52.588;13.406;2023-11-19T12:45:13;10.40;99.90
25963;DHT22;13760;52.588;13.406;2023-11-19T12:47:40;10.40;99.90
25963;DHT22;13760;52.588;13.406;2023-11-19T12:50:07;10.40;99.90
25963;DHT22;13760;52.588;13.406;2023-11-19T12:52:36;10.30;99.90
25963;DHT22;13760;52.588;13.406;2023-11-19T12:55:27;10.30;99.90
25963;DHT22;13760;52.588;13.406;2023-11-19T12:57:53;10.30;99.90
25963;DHT22;13760;52.588;13.406;2023-11-19T13:00:23;10.30;99.90
25963;DHT22;13760;52.588;13.406;2023-11-19T13:02:53;10.30;99.90
25963;DHT22;13760;52.588;13.406;2023-11-19T13:05:32;10.30;99.90
25963;DHT22;13760;52.588;13.406;2023-11-19T13:08:02;10.30;99.90
25963;DHT22;13760;52.588;13.406;2023-11-19T13:10:29;10.30;99.90
25963;DHT22;13760;52.588;13.406;2023-11-19T13:15:27;10.30;99.90
25963;DHT22;13760;52.588;13.406;2023-11-19T13:17:52;10.30;99.90
25963;DHT22;13760;52.588;13.406;2023-11-19T13:20:18;10.30;99.90
25963;DHT22;13760;52.588;13.406;2023-11-19T13:23:01;10.30;99.90
25963;DHT22;13760;52.588;13.406;2023-11-19T13:25:27;10.30;99.90
25963;DHT22;13760;52.588;13.406;2023-11-19T13:27:54;10.30;99.90
25963;DHT22;13760;52.588;13.406;2023-11-19T13:30:20;10.30;99.90
25963;DHT22;13760;52.588;13.406;2023-11-19T13:32:45;10.30;99.90
25963;DHT22;13760;52.588;13.406;2023-11-19T13:35:15;10.20;99.90
25963;DHT22;13760;52.588;13.406;2023-11-19T13:37:41;10.20;99.90
25963;DHT22;13760;52.588;13.406;2023-11-19T13:40:07;10.20;99.90
25963;DHT22;13760;52.588;13.406;2023-11-19T13:42:33;10.20;99.90
25963;DHT22;13760;52.588;13.406;2023-11-19T13:44:58;10.20;99.90
25963;DHT22;13760;52.588;13.406;2023-11-19T13:47:24;10.20;99.90
25963;DHT22;13760;52.588;13.406;2023-11-19T13:49:50;10.10;99.90
25963;DHT22;13760;52.588;13.406;2023-11-19T13:52:15;10.10;99.90
25963;DHT22;13760;52.588;13.406;2023-11-19T13:54:41;10.10;99.90
25963;DHT22;13760;52.588;13.406;2023-11-19T13:57:07;10.10;99.90
25963;DHT22;13760;52.588;13.406;2023-11-19T13:59:32;10.10;99.90
25963;DHT22;13760;52.588;13.406;2023-11-19T14:01:58;10.10;99.90
25963;DHT22;13760;52.588;13.406;2023-11-19T14:04:24;10.10;99.90
25963;DHT22;13760;52.588;13.406;2023-11-19T14:06:50;10.10;99.90
25963;DHT22;13760;52.588;13.406;2023-11-19T14:09:16;10.10;99.90
25963;DHT22;13760;52.588;13.406;2023-11-19T14:11:41;10.10;99.90
25963;DHT22;13760;52.588;13.406;2023-11-19T14:14:07;10.10;99.90
25963;DHT22;13760;52.588;13.406;2023-11-19T14:16:33;10.00;99.90
25963;DHT22;13760;52.588;13.406;2023-11-19T14:18:59;10.00;99.90
25963;DHT22;13760;52.588;13.406;2023-11-19T14:21:25;10.00;99.90
25963;DHT22;13760;52.588;13.406;2023-11-19T14:23:52;10.00;99.90
25963;DHT22;13760;52.588;13.406;2023-11-19T14:26:18;10.00;99.90
25963;DHT22;13760;52.588;13.406;2023-11-19T14:28:43;10.00;99.90
25963;DHT22;13760;52.588;13.406;2023-11-19T14:31:09;10.00;99.90
25963;DHT22;13760;52.588;13.406;2023-11-19T14:33:34;10.00;99.90
25963;DHT22;13760;52.588;13.406;2023-11-19T14:36:01;10.00;99.90
25963;DHT22;13760;52.588;13.406;2023-11-19T14:38:27;10.00;99.90
25963;DHT22;13760;52.588;13.406;2023-11-19T14:40:53;10.00;99.90
25963;DHT22;13760;52.588;13.406;2023-11-19T14:43:18;10.00;99.90
25963;DHT22;13760;52.588;13.406;2023-11-19T14:45:44;10.00;99.90
25963;DHT22;13760;52.588;13.406;2023-11-19T14:48:09;10.00;99.90
25963;DHT22;13760;52.588;13.406;2023-11-19T14:50:35;9.90;99.90
25963;DHT22;13760;52.588;13.406;2023-11-19T14:53:01;10.00;99.90
25963;DHT22;13760;52.588;13.406;2023-11-19T14:55:27;9.90;99.90
25963;DHT22;13760;52.588;13.406;2023-11-19T14:57:53;9.90;99.90
25963;DHT22;13760;52.588;13.406;2023-11-19T15:00:19;10.00;99.90
25963;DHT22;13760;52.588;13.406;2023-11-19T15:02:44;10.00;99.90
25963;DHT22;13760;52.588;13.406;2023-11-19T15:05:10;9.90;99.90
25963;DHT22;13760;52.588;13.406;2023-11-19T15:07:37;9.90;99.90
25963;DHT22;13760;52.588;13.406;2023-11-19T15:10:03;9.90;99.90
25963;DHT22;13760;52.588;13.406;2023-11-19T15:12:29;9.90;99.90
25963;DHT22;13760;52.588;13.406;2023-11-19T15:14:55;9.90;99.90
25963;DHT22;13760;52.588;13.406;2023-11-19T15:17:21;9.90;99.90
25963;DHT22;13760;52.588;13.406;2023-11-19T15:19:47;9.90;99.90
25963;DHT22;13760;52.588;13.406;2023-11-19T15:22:13;9.90;99.90
25963;DHT22;13760;52.588;13.406;2023-11-19T15:24:38;9.90;99.90
25963;DHT22;13760;52.588;13.406;2023-11-19T15:27:06;9.90;99.90
25963;DHT22;13760;52.588;13.406;2023-11-19T15:29:32;9.90;99.90
25963;DHT22;13760;52.588;13.406;2023-11-19T15:31:59;9.90;99.90
25963;DHT22;13760;52.588;13.406;2023-11-19T15:34:25;9.90;99.90
25963;DHT22;13760;52.588;13.406;2023-11-19T15:36:51;9.90;99.90
25963;DHT22;13760;52.588;13.406;2023-11-19T15:39:16;9.90;99.90
25963;DHT22;13760;52.588;13.406;2023-11-19T15:41:42;9.90;99.90